Time;durP1;ratioP1;P1;durP2;ratioP2;P2;SDS_P1;SDS_P2;PMS_P1;PMS_P2;Temp;Humidity;BMP_temperature;BMP_pressure;BME280_temperature;BME280_humidity;BME280_pressure;Samples;Min_cycle;Max_cycle;Signal;HPM_P1;HPM_P2
2023/08/18 00:01:19;;;;;;;1999.90;999.90;;;;;;;22.44;100.00;98725.50;5113446;27;20116;-92
2023/08/18 00:03:45;;;;;;;1999.90;999.90;;;;;;;22.42;100.00;98705.78;5113065;27;20089;-92
2023/08/18 00:06:13;;;;;;;1999.90;999.90;;;;;;;22.57;100.00;98731.72;5112500;27;20076;-93
2023/08/18 00:08:39;;;;;;;1999.90;999.90;;;;;;;22.49;100.00;98721.47;5114845;27;20412;-92
2023/08/18 00:11:05;;;;;;;1999.90;999.90;;;;;;;22.51;100.00;98721.34;5112747;27;20011;-92
2023/08/18 00:13:31;;;;;;;1999.90;999.90;;;;;;;22.40;100.00;98721.31;5112660;27;20046;-92
2023/08/18 00:15:57;;;;;;;1999.90;999.90;;;;;;;22.38;100.00;98707.00;5107974;27;20042;-91
2023/08/18 00:18:23;;;;;;;1999.90;999.90;;;;;;;22.36;100.00;98712.56;5112807;27;20040;-92
2023/08/18 00:20:50;;;;;;;1999.90;999.90;;;;;;;22.30;100.00;98713.03;5115572;27;20124;-92
2023/08/18 00:23:17;;;;;;;1999.90;999.90;;;;;;;22.19;100.00;98721.94;5113657;27;20789;-92
2023/08/18 00:25:43;;;;;;;1999.90;999.90;;;;;;;21.99;100.00;98714.44;5110373;27;20032;-92
2023/08/18 00:28:09;;;;;;;1999.90;999.90;;;;;;;21.97;100.00;98708.25;5110842;27;20062;-92
2023/08/18 00:30:35;;;;;;;1999.90;999.90;;;;;;;21.86;100.00;98701.84;5112240;27;20039;-93
2023/08/18 00:33:01;;;;;;;1999.90;999.90;;;;;;;21.81;100.00;98705.84;5110377;27;20036;-92
2023/08/18 00:35:28;;;;;;;1999.90;999.90;;;;;;;21.71;100.00;98698.41;5114191;27;20039;-91
2023/08/18 00:37:53;;;;;;;1999.90;999.90;;;;;;;21.71;100.00;98706.53;5113514;27;20079;-92
2023/08/18 00:40:22;;;;;;;1999.90;999.90;;;;;;;21.71;100.00;98709.25;5109979;27;20036;-92
2023/08/18 00:42:48;;;;;;;1999.90;999.90;;;;;;;21.63;100.00;98711.66;5111085;27;20522;-92
2023/08/18 00:45:13;;;;;;;1999.90;999.90;;;;;;;21.60;100.00;98711.00;5112997;27;20055;-93
2023/08/18 00:47:39;;;;;;;1999.90;999.90;;;;;;;21.71;100.00;98727.34;5108031;28;20048;-91
2023/08/18 00:50:07;;;;;;;1999.90;999.90;;;;;;;21.69;100.00;98718.47;5117659;27;20035;-92
2023/08/18 00:52:33;;;;;;;1999.90;999.90;;;;;;;21.68;100.00;98712.16;5111255;27;20043;-91
2023/08/18 00:54:59;;;;;;;1999.90;999.90;;;;;;;21.68;100.00;98708.59;5106024;28;20116;-91
2023/08/18 00:57:27;;;;;;;1999.90;999.90;;;;;;;21.64;100.00;98715.22;5110413;27;20095;-91
2023/08/18 00:59:52;;;;;;;1999.90;999.90;;;;;;;21.59;100.00;98720.09;5107769;27;20405;-92
2023/08/18 01:02:18;;;;;;;1999.90;999.90;;;;;;;21.48;100.00;98699.25;5113188;27;20031;-93
2023/08/18 01:04:45;;;;;;;1999.90;999.90;;;;;;;21.41;100.00;98700.66;5114057;27;20059;-91
2023/08/18 01:07:11;;;;;;;1999.90;999.90;;;;;;;21.39;100.00;98722.38;5109239;27;20038;-93
2023/08/18 01:09:37;;;;;;;1999.90;999.90;;;;;;;21.35;100.00;98715.47;5111382;27;20400;-92
2023/08/18 01:12:25;;;;;;;1999.90;999.90;;;;;;;21.50;100.00;98719.78;5114265;27;20034;-91
2023/08/18 01:14:59;;;;;;;1999.90;999.90;;;;;;;21.39;100.00;98710.72;5113194;27;20042;-92
2023/08/18 01:17:34;;;;;;;1999.90;999.90;;;;;;;21.31;100.00;98712.09;5106450;28;20682;-91
2023/08/18 01:20:00;;;;;;;1999.90;999.90;;;;;;;21.29;100.00;98713.19;5111994;27;20107;-92
2023/08/18 01:22:26;;;;;;;1999.90;999.90;;;;;;;21.28;100.00;98709.63;5110115;27;20062;-93
2023/08/18 01:24:59;;;;;;;1999.90;999.90;;;;;;;21.18;100.00;98705.84;5110074;27;20043;-91
2023/08/18 01:27:25;;;;;;;1999.90;999.90;;;;;;;21.06;100.00;98687.81;5113317;27;20047;-91
2023/08/18 01:29:51;;;;;;;1999.90;999.90;;;;;;;21.19;100.00;98709.41;5113254;27;20030;-92
2023/08/18 01:32:18;;;;;;;1999.90;999.90;;;;;;;21.13;100.00;98700.78;5107715;27;20065;-93
2023/08/18 01:34:46;;;;;;;1999.90;999.90;;;;;;;20.92;100.00;98705.88;5109202;27;20046;-92
2023/08/18 01:37:13;;;;;;;1999.90;999.90;;;;;;;20.95;100.00;98706.63;5112626;27;20093;-91
2023/08/18 01:39:41;;;;;;;1999.90;999.90;;;;;;;20.83;100.00;98700.25;5109872;27;20035;-92
2023/08/18 01:42:08;;;;;;;1999.90;999.90;;;;;;;20.79;100.00;98699.59;5109965;27;20043;-90
2023/08/18 01:44:34;;;;;;;1999.90;999.90;;;;;;;20.87;100.00;98705.34;5109534;28;20265;-92
2023/08/18 01:47:00;;;;;;;1999.90;999.90;;;;;;;20.93;100.00;98710.31;5109810;27;21613;-92
2023/08/18 01:49:26;;;;;;;1999.90;999.90;;;;;;;20.88;100.00;98689.97;5112462;27;20031;-91
2023/08/18 01:51:51;;;;;;;1999.90;999.90;;;;;;;20.97;100.00;98700.16;5108414;27;20453;-91
2023/08/18 01:54:17;;;;;;;1999.90;999.90;;;;;;;20.93;100.00;98680.56;5107196;27;20067;-91
2023/08/18 01:56:43;;;;;;;1999.90;999.90;;;;;;;21.10;100.00;98700.13;5110640;27;20040;-91
2023/08/18 01:59:13;;;;;;;1999.90;999.90;;;;;;;21.00;100.00;98689.13;5115894;27;21510;-90
2023/08/18 02:01:39;;;;;;;1999.90;999.90;;;;;;;20.99;100.00;98682.00;5105139;27;20096;-92
2023/08/18 02:04:05;;;;;;;1999.90;999.90;;;;;;;20.96;100.00;98679.50;5115230;27;20047;-91
2023/08/18 02:06:31;;;;;;;1999.90;999.90;;;;;;;20.89;100.00;98691.72;5131722;27;20038;-91
2023/08/18 02:08:57;;;;;;;1999.90;999.90;;;;;;;20.86;100.00;98686.50;5110243;27;20046;-92
2023/08/18 02:11:23;;;;;;;1999.90;999.90;;;;;;;20.88;100.00;98688.16;5110955;27;20413;-91
2023/08/18 02:13:48;;;;;;;1999.90;999.90;;;;;;;20.61;100.00;98674.75;5112042;27;20059;-92
2023/08/18 02:16:15;;;;;;;1999.90;999.90;;;;;;;20.68;100.00;98688.69;5109108;27;20035;-91
2023/08/18 02:18:41;;;;;;;1999.90;999.90;;;;;;;20.68;100.00;98676.03;5108322;27;20050;-91
2023/08/18 02:21:07;;;;;;;1999.90;999.90;;;;;;;20.69;100.00;98663.41;5110929;27;20489;-91
2023/08/18 02:23:33;;;;;;;1999.90;999.90;;;;;;;20.84;100.00;98666.84;5109278;27;20035;-91
2023/08/18 02:26:00;;;;;;;1999.90;999.90;;;;;;;20.87;100.00;98663.94;5109728;27;20058;-92
2023/08/18 02:28:26;;;;;;;1999.90;999.90;;;;;;;20.96;100.00;98676.78;5107552;27;20047;-92
2023/08/18 02:30:58;;;;;;;1999.90;999.90;;;;;;;20.87;100.00;98662.09;5110100;27;20046;-91
2023/08/18 02:33:26;;;;;;;1999.90;999.90;;;;;;;20.82;100.00;98668.78;5107900;27;20299;-92
2023/08/18 02:35:52;;;;;;;1999.90;999.90;;;;;;;20.81;100.00;98667.06;5108352;27;20072;-91
2023/08/18 02:38:18;;;;;;;1999.90;999.90;;;;;;;20.61;100.00;98663.06;5113065;27;20514;-92
2023/08/18 02:40:44;;;;;;;1999.90;999.90;;;;;;;20.57;100.00;98643.50;5107297;27;20083;-92
2023/08/18 02:43:10;;;;;;;1999.90;999.90;;;;;;;20.64;100.00;98650.19;5113319;27;20032;-91
2023/08/18 02:45:36;;;;;;;1999.90;999.90;;;;;;;20.72;100.00;98655.06;5111500;27;20038;-91
2023/08/18 02:48:02;;;;;;;1999.90;999.90;;;;;;;20.70;100.00;98652.47;5108995;28;20055;-92
2023/08/18 02:50:29;;;;;;;1999.90;999.90;;;;;;;20.70;100.00;98648.91;5113385;28;20594;-91
2023/08/18 02:53:00;;;;;;;1999.90;999.90;;;;;;;20.59;100.00;98632.59;5109183;27;20081;-91
2023/08/18 02:55:26;;;;;;;1999.90;999.90;;;;;;;20.65;100.00;98648.38;5121624;28;20043;-92
2023/08/18 02:57:52;;;;;;;1999.90;999.90;;;;;;;20.63;100.00;98648.47;5110357;27;20059;-91
2023/08/18 03:00:17;;;;;;;1999.90;999.90;;;;;;;20.68;100.00;98649.00;5110904;28;20042;-91
2023/08/18 03:02:43;;;;;;;1999.90;999.90;;;;;;;20.66;100.00;98645.53;5110441;28;20036;-91
2023/08/18 03:05:09;;;;;;;1999.90;999.90;;;;;;;20.57;100.00;98627.28;5112762;28;20100;-92
2023/08/18 03:07:36;;;;;;;1999.90;999.90;;;;;;;20.60;100.00;98627.09;5114119;28;20052;-92
2023/08/18 03:10:02;;;;;;;1999.90;999.90;;;;;;;20.76;100.00;98645.78;5107811;28;20039;-91
2023/08/18 03:12:28;;;;;;;1999.90;999.90;;;;;;;20.91;100.00;98652.78;5108545;28;20068;-91
2023/08/18 03:14:54;;;;;;;1999.90;999.90;;;;;;;21.00;100.00;98640.47;5109930;28;20109;-91
2023/08/18 03:17:20;;;;;;;1999.90;999.90;;;;;;;21.06;100.00;98644.56;5108535;28;20124;-92
2023/08/18 03:19:46;;;;;;;1999.90;999.90;;;;;;;21.12;100.00;98644.09;5110339;28;20413;-91
2023/08/18 03:22:12;;;;;;;1999.90;999.90;;;;;;;21.21;100.00;98650.69;5106891;28;20036;-91
2023/08/18 03:24:39;;;;;;;1999.90;999.90;;;;;;;21.25;100.00;98663.00;5107582;28;20035;-93
2023/08/18 03:27:05;;;;;;;1999.90;999.90;;;;;;;21.24;100.00;98659.44;5111083;28;20040;-92
2023/08/18 03:29:31;;;;;;;1999.90;999.90;;;;;;;21.26;100.00;98664.75;5109194;28;20526;-91
2023/08/18 03:31:57;;;;;;;1999.90;999.90;;;;;;;21.13;100.00;98653.94;5107190;27;20043;-91
2023/08/18 03:34:22;;;;;;;1999.90;999.90;;;;;;;21.11;100.00;98648.66;5113772;27;20066;-91
2023/08/18 03:36:48;;;;;;;1999.90;999.90;;;;;;;21.20;100.00;98652.53;5115943;27;20039;-91
2023/08/18 03:39:14;;;;;;;1999.90;999.90;;;;;;;21.20;100.00;98663.34;5109928;27;20046;-91
2023/08/18 03:41:41;;;;;;;1999.90;999.90;;;;;;;21.11;100.00;98666.72;5111450;27;20036;-92
2023/08/18 03:44:07;;;;;;;1999.90;999.90;;;;;;;21.04;100.00;98666.28;5116335;27;20043;-91
2023/08/18 03:46:33;;;;;;;1999.90;999.90;;;;;;;20.98;100.00;98668.56;5110955;27;20039;-92
2023/08/18 03:48:59;;;;;;;1999.90;999.90;;;;;;;20.88;100.00;98669.25;5091193;28;20081;-92
2023/08/18 03:51:25;;;;;;;1999.90;999.90;;;;;;;20.70;100.00;98665.97;5096434;28;20040;-91
2023/08/18 03:53:51;;;;;;;1999.90;999.90;;;;;;;20.71;100.00;98678.53;5094628;28;20085;-91
2023/08/18 03:56:17;;;;;;;1999.90;999.90;;;;;;;20.58;100.00;98669.56;5094477;28;20070;-91
2023/08/18 03:58:45;;;;;;;1999.90;999.90;;;;;;;20.45;100.00;98664.09;5096819;28;20479;-92
2023/08/18 04:01:11;;;;;;;1999.90;999.90;;;;;;;20.46;100.00;98676.63;5095346;28;20040;-91
2023/08/18 04:03:38;;;;;;;1999.90;999.90;;;;;;;20.34;100.00;98665.81;5095435;28;20043;-91
2023/08/18 04:06:05;;;;;;;1999.90;999.90;;;;;;;20.45;100.00;98687.53;5096104;28;20042;-92
2023/08/18 04:08:32;;;;;;;1999.90;999.90;;;;;;;20.40;100.00;98689.69;5096288;28;20032;-92
2023/08/18 04:10:59;;;;;;;1999.90;999.90;;;;;;;20.40;100.00;98692.41;5111892;28;20582;-92
2023/08/18 04:13:24;;;;;;;1999.90;999.90;;;;;;;20.40;100.00;98684.28;5097269;28;20081;-91
2023/08/18 04:15:52;;;;;;;1999.90;999.90;;;;;;;20.42;100.00;98683.22;5091901;28;20044;-91
2023/08/18 04:18:18;;;;;;;1999.90;999.90;;;;;;;20.34;100.00;98673.91;5093978;28;20153;-91
2023/08/18 04:20:43;;;;;;;1999.90;999.90;;;;;;;20.30;100.00;98673.28;5097100;28;20035;-93
2023/08/18 04:23:10;;;;;;;1999.90;999.90;;;;;;;20.25;100.00;98673.56;5096743;28;20062;-91
2023/08/18 04:25:36;;;;;;;1999.90;999.90;;;;;;;20.11;100.00;98661.00;5097569;28;20043;-92
2023/08/18 04:28:02;;;;;;;1999.90;999.90;;;;;;;20.07;100.00;98672.13;5096880;28;20083;-91
2023/08/18 04:30:28;;;;;;;1999.90;999.90;;;;;;;20.12;100.00;98688.88;5094411;28;20039;-91
2023/08/18 04:32:55;;;;;;;1999.90;999.90;;;;;;;19.96;100.00;98678.25;5095641;28;20043;-92
2023/08/18 04:35:21;;;;;;;1999.90;999.90;;;;;;;20.04;100.00;98680.44;5095615;28;20455;-93
2023/08/18 04:37:46;;;;;;;1999.90;999.90;;;;;;;20.33;100.00;98683.84;5098342;28;20028;-93
2023/08/18 04:40:12;;;;;;;1999.90;999.90;;;;;;;20.37;100.00;98690.78;5095703;28;20131;-91
2023/08/18 04:42:38;;;;;;;1999.90;999.90;;;;;;;20.39;100.00;98694.25;5097602;28;20077;-91
2023/08/18 04:45:05;;;;;;;1999.90;999.90;;;;;;;20.46;100.00;98700.09;5094465;28;20492;-92
2023/08/18 04:47:31;;;;;;;1999.90;999.90;;;;;;;20.43;100.00;98687.66;5104062;28;20097;-92
2023/08/18 04:49:58;;;;;;;1999.90;999.90;;;;;;;20.48;100.00;98695.44;5112014;28;20032;-92
2023/08/18 04:52:24;;;;;;;1999.90;999.90;;;;;;;20.49;100.00;98692.66;5112049;28;20108;-91
2023/08/18 04:54:51;;;;;;;1999.90;999.90;;;;;;;20.53;100.00;98696.84;5110133;28;20062;-92
2023/08/18 04:57:17;;;;;;;1999.90;999.90;;;;;;;20.53;100.00;98696.84;5113183;28;20036;-91
2023/08/18 04:59:43;;;;;;;1999.90;999.90;;;;;;;20.46;100.00;98689.28;5112122;28;20031;-91
2023/08/18 05:02:09;;;;;;;1999.90;999.90;;;;;;;20.40;100.00;98671.66;5108187;28;20497;-92
2023/08/18 05:04:35;;;;;;;1999.90;999.90;;;;;;;20.53;100.00;98690.56;5111144;28;20040;-92
2023/08/18 05:07:02;;;;;;;1999.90;999.90;;;;;;;20.53;100.00;98685.16;5114246;28;20032;-92
2023/08/18 05:09:28;;;;;;;1999.90;999.90;;;;;;;20.60;100.00;98697.34;5111661;28;20040;-91
2023/08/18 05:11:53;;;;;;;1999.90;999.90;;;;;;;20.73;100.00;98710.84;5113344;28;20047;-92
2023/08/18 05:14:19;;;;;;;1999.90;999.90;;;;;;;20.74;100.00;98698.22;5110074;28;20542;-93
2023/08/18 05:16:45;;;;;;;1999.90;999.90;;;;;;;20.89;100.00;98707.94;5110007;28;20047;-91
2023/08/18 05:19:11;;;;;;;1999.90;999.90;;;;;;;20.84;100.00;98691.16;5113462;28;20036;-92
2023/08/18 05:21:37;;;;;;;1999.90;999.90;;;;;;;20.95;100.00;98706.63;5111968;28;20032;-92
2023/08/18 05:24:05;;;;;;;1999.90;999.90;;;;;;;20.98;100.00;98692.91;5113251;28;20032;-91
2023/08/18 05:26:30;;;;;;;1999.90;999.90;;;;;;;21.08;100.00;98707.50;5110129;28;20074;-91
2023/08/18 05:28:56;;;;;;;1999.90;999.90;;;;;;;21.14;100.00;98704.34;5111886;28;20044;-91
2023/08/18 05:31:22;;;;;;;1999.90;999.90;;;;;;;21.34;100.00;98713.75;5104621;28;20064;-91
2023/08/18 05:33:48;;;;;;;1999.90;999.90;;;;;;;21.49;100.00;98717.19;5109080;28;20438;-92
2023/08/18 05:36:14;;;;;;;1999.90;999.90;;;;;;;21.59;100.00;98707.44;5111232;28;20044;-91
2023/08/18 05:38:39;;;;;;;1999.90;999.90;;;;;;;21.89;100.00;98722.41;5109799;28;20042;-92
2023/08/18 05:41:11;;;;;;;1999.90;999.90;;;;;;;22.03;100.00;98715.94;5112145;28;20044;-91
2023/08/18 05:43:37;;;;;;;1999.90;999.90;;;;;;;22.15;100.00;98724.00;5108328;28;20862;-92
2023/08/18 05:46:03;;;;;;;1999.90;999.90;;;;;;;22.23;100.00;98706.34;5109077;28;20039;-92
2023/08/18 05:48:30;;;;;;;1999.90;999.90;;;;;;;22.43;100.00;98719.25;5112240;28;20067;-91
2023/08/18 05:50:56;;;;;;;1999.90;999.90;;;;;;;22.52;100.00;98717.66;5110012;28;20066;-91
2023/08/18 05:53:21;;;;;;;1999.90;999.90;;;;;;;22.71;100.00;98728.81;5110376;28;20490;-92
2023/08/18 05:55:48;;;;;;;1999.90;999.90;;;;;;;22.81;100.00;98717.25;5111210;28;20528;-92
2023/08/18 05:58:15;;;;;;;1999.90;999.90;;;;;;;22.93;100.00;98717.16;5110352;28;20400;-92
2023/08/18 06:00:41;;;;;;;1999.90;999.90;;;;;;;22.92;100.00;98706.41;5108978;28;20051;-91
2023/08/18 06:03:07;;;;;;;1999.90;999.90;;;;;;;23.01;100.00;98708.44;5110566;28;20040;-93
2023/08/18 06:05:33;;;;;;;1999.90;999.90;;;;;;;23.11;100.00;98703.13;5110360;28;20393;-94
2023/08/18 06:08:00;;;;;;;1999.90;999.90;;;;;;;23.21;100.00;98696.00;5110592;28;20093;-93
2023/08/18 06:10:25;;;;;;;1999.90;999.90;;;;;;;23.47;100.00;98720.19;5111709;28;20044;-93
2023/08/18 06:12:51;;;;;;;1999.90;999.90;;;;;;;23.53;100.00;98725.06;5112257;28;20482;-93
2023/08/18 06:15:19;;;;;;;1999.90;999.90;;;;;;;23.59;100.00;98724.59;5112038;28;20088;-92
2023/08/18 06:17:45;;;;;;;1999.90;999.90;;;;;;;23.73;100.00;98731.63;5107445;28;20112;-92
2023/08/18 06:20:12;;;;;;;1999.90;999.90;;;;;;;23.88;100.00;98733.09;5113277;28;20492;-93
2023/08/18 06:22:39;;;;;;;1999.90;999.90;;;;;;;23.97;100.00;98729.63;5113777;28;20093;-93
2023/08/18 06:25:06;;;;;;;1999.90;999.90;;;;;;;24.06;100.00;98713.56;5110583;28;20087;-93
2023/08/18 06:27:32;;;;;;;1999.90;999.90;;;;;;;24.26;100.00;98720.88;5112733;28;20044;-93
2023/08/18 06:29:58;;;;;;;1999.90;999.90;;;;;;;24.36;100.00;98705.53;5113627;28;20057;-92
2023/08/18 06:32:25;;;;;;;1999.90;999.90;;;;;;;24.54;100.00;98705.84;5111312;28;20036;-92
2023/08/18 06:34:51;;;;;;;1999.90;999.90;;;;;;;24.84;100.00;98741.41;5106927;28;20130;-92
2023/08/18 06:37:17;;;;;;;1999.90;999.90;;;;;;;24.99;100.00;98746.38;5112045;28;20040;-93
2023/08/18 06:39:43;;;;;;;1999.90;999.90;;;;;;;25.04;100.00;98736.94;5108482;28;20040;-93
2023/08/18 06:42:09;;;;;;;1999.90;999.90;;;;;;;25.21;100.00;98739.94;5113919;28;20084;-94
2023/08/18 06:44:35;;;;;;;1999.90;999.90;;;;;;;25.28;100.00;98728.53;5109935;28;20040;-92
2023/08/18 06:47:01;;;;;;;1999.90;999.90;;;;;;;25.35;100.00;98716.97;5111628;28;20558;-92
2023/08/18 06:49:29;;;;;;;1999.90;999.90;;;;;;;25.45;100.00;98716.13;5106905;28;20508;-93
2023/08/18 06:51:54;;;;;;;1999.90;999.90;;;;;;;25.66;100.00;98729.69;5111387;28;20040;-96
2023/08/18 06:54:20;;;;;;;1999.90;999.90;;;;;;;25.53;100.00;98741.69;5110236;28;20089;-92
2023/08/18 06:56:46;;;;;;;1999.90;999.90;;;;;;;25.47;100.00;98730.47;5105952;28;20122;-93
2023/08/18 06:59:12;;;;;;;1999.90;999.90;;;;;;;25.53;100.00;98719.03;5114059;28;20056;-93
2023/08/18 07:01:38;;;;;;;1999.90;999.90;;;;;;;25.70;100.00;98731.09;5112979;28;20104;-93
2023/08/18 07:04:04;;;;;;;1999.90;999.90;;;;;;;25.79;100.00;98736.59;5094976;28;20044;-94
2023/08/18 07:06:32;;;;;;;1999.90;999.90;;;;;;;25.83;100.00;98726.31;5110949;28;20081;-93
2023/08/18 07:08:58;;;;;;;1999.90;999.90;;;;;;;25.93;100.00;98731.78;5112627;28;20043;-93
2023/08/18 07:11:24;;;;;;;1999.90;999.90;;;;;;;26.03;98.36;98717.19;5111671;28;20393;-94
2023/08/18 07:13:50;;;;;;;1999.90;999.90;;;;;;;26.24;100.00;98732.56;5102557;28;20546;-94
2023/08/18 07:16:16;;;;;;;1999.90;999.90;;;;;;;26.17;100.00;98732.25;5111032;28;20048;-94
2023/08/18 07:18:41;;;;;;;1999.90;999.90;;;;;;;26.06;100.00;98732.38;5111983;28;20456;-92
2023/08/18 07:21:07;;;;;;;1999.90;999.90;;;;;;;26.36;100.00;98733.28;5113387;28;20396;-92
2023/08/18 07:23:34;;;;;;;1999.90;999.90;;;;;;;26.57;98.16;98725.00;5111401;28;20201;-94
2023/08/18 07:26:01;;;;;;;1999.90;999.90;;;;;;;26.79;96.44;98723.84;5113402;28;20047;-92
2023/08/18 07:28:27;;;;;;;1999.90;999.90;;;;;;;26.88;96.35;98741.19;5112992;28;20047;-93
2023/08/18 07:30:53;;;;;;;1999.90;999.90;;;;;;;26.97;95.61;98743.91;5110177;28;20081;-92
2023/08/18 07:33:19;;;;;;;1999.90;999.90;;;;;;;27.18;95.85;98751.06;5107754;28;20465;-92
2023/08/18 07:35:46;;;;;;;1999.90;999.90;;;;;;;27.23;94.76;98735.09;5106639;28;20139;-93
2023/08/18 07:38:12;;;;;;;1999.90;999.90;;;;;;;27.40;94.27;98734.34;5111709;28;20035;-92
2023/08/18 07:40:39;;;;;;;1999.90;999.90;;;;;;;27.60;92.35;98750.63;5109146;28;20043;-94
2023/08/18 07:43:05;;;;;;;1999.90;999.90;;;;;;;27.18;93.01;98743.72;5113371;28;20499;-92
2023/08/18 07:45:31;;;;;;;1999.90;999.90;;;;;;;27.37;92.66;98753.75;5111479;28;20122;-93
2023/08/18 07:47:57;;;;;;;1999.90;999.90;;;;;;;27.43;91.84;98739.50;5110306;28;20138;-93
2023/08/18 07:50:23;;;;;;;1999.90;999.90;;;;;;;27.57;92.23;98748.22;5112092;28;20129;-93
2023/08/18 07:52:49;;;;;;;1999.90;999.90;;;;;;;27.72;90.76;98751.31;5110898;28;20055;-94
2023/08/18 07:55:15;;;;;;;1999.90;999.90;;;;;;;27.85;88.90;98738.19;5110189;28;20055;-93
2023/08/18 07:57:42;;;;;;;1999.90;999.90;;;;;;;28.05;89.44;98739.78;5110400;28;20059;-94
2023/08/18 08:00:14;;;;;;;1999.90;999.90;;;;;;;28.34;87.18;98754.28;5110737;28;20085;-93
2023/08/18 08:02:40;;;;;;;1999.90;999.90;;;;;;;28.47;84.31;98747.44;5112750;28;20084;-94
2023/08/18 08:05:07;;;;;;;1999.90;999.90;;;;;;;28.63;83.45;98754.94;5111791;28;20043;-94
2023/08/18 08:07:33;;;;;;;1999.90;999.90;;;;;;;28.62;81.74;98760.56;5110424;28;20123;-94
2023/08/18 08:10:03;;;;;;;1999.90;999.90;;;;;;;28.74;82.30;98747.53;5113381;28;20097;-93
2023/08/18 08:12:28;;;;;;;1999.90;999.90;;;;;;;28.69;84.40;98731.56;5111411;28;20040;-93
2023/08/18 08:14:56;;;;;;;1999.90;999.90;;;;;;;28.87;81.12;98751.56;5110605;28;20065;-92
2023/08/18 08:17:22;;;;;;;1999.90;999.90;;;;;;;29.01;81.97;98746.53;5110657;28;20130;-93
2023/08/18 08:19:48;;;;;;;1999.90;999.90;;;;;;;29.04;80.62;98751.69;5109583;28;20032;-94
2023/08/18 08:22:16;;;;;;;37.50;34.65;;;;;;;28.75;81.01;98747.34;5115991;28;20039;-95
2023/08/18 08:24:41;;;;;;;42.50;38.75;;;;;;;28.60;83.68;98737.97;5108207;28;20071;-94
2023/08/18 08:27:11;;;;;;;40.67;37.42;;;;;;;28.84;82.76;98753.75;5116331;28;20063;-92
2023/08/18 08:29:36;;;;;;;41.25;37.95;;;;;;;29.00;81.86;98742.09;5116872;28;20446;-95
2023/08/18 08:32:04;;;;;;;39.45;36.08;;;;;;;29.21;80.30;98750.81;5116194;28;20026;-93
2023/08/18 08:34:30;;;;;;;39.65;36.22;;;;;;;29.36;79.77;98750.22;5111041;28;20048;-93
2023/08/18 08:36:56;;;;;;;38.63;35.40;;;;;;;29.26;78.17;98742.97;5106079;28;20088;-94
2023/08/18 08:39:21;;;;;;;38.63;35.05;;;;;;;29.13;78.65;98742.53;5113439;28;20395;-94
2023/08/18 08:41:48;;;;;;;38.50;34.83;;;;;;;28.89;81.23;98745.94;5111272;28;20043;-94
2023/08/18 08:44:13;;;;;;;34.10;31.17;;;;;;;29.24;79.57;98741.41;5114614;28;20032;-94
2023/08/18 08:46:40;;;;;;;34.17;31.17;;;;;;;29.53;77.89;98743.81;5118877;27;20122;-93
2023/08/18 08:49:09;;;;;;;34.20;31.00;;;;;;;29.73;76.28;98747.19;5120200;27;20078;-93
2023/08/18 08:51:37;;;;;;;;;;;;;;;29.96;76.35;98744.72;5106769;27;20038;-93
2023/08/18 08:54:05;;;;;;;35.03;31.77;;;;;;;30.06;75.72;98750.94;5110103;27;19920;-96
2023/08/18 08:56:34;;;;;;;33.00;29.85;;;;;;;30.18;74.46;98735.00;5113650;27;20493;-94
2023/08/18 08:59:00;;;;;;;30.52;27.85;;;;;;;30.19;72.80;98725.78;5099492;28;20146;-93
2023/08/18 09:01:26;;;;;;;28.83;26.33;;;;;;;30.34;72.44;98722.38;5099138;28;20044;-93
2023/08/18 09:03:53;;;;;;;29.55;26.90;;;;;;;30.35;72.06;98726.84;5099835;28;20059;-94
2023/08/18 09:06:20;;;;;;;32.00;27.20;;;;;;;29.87;73.45;98726.53;5099086;28;20044;-93
2023/08/18 09:08:46;;;;;;;29.65;26.75;;;;;;;29.97;74.96;98730.00;5098844;28;20391;-94
2023/08/18 09:11:12;;;;;;;28.40;25.70;;;;;;;30.07;72.93;98719.72;5096664;28;20040;-94
2023/08/18 09:13:39;;;;;;;27.15;24.45;;;;;;;30.29;74.68;98728.38;5094791;27;20034;-93
2023/08/18 09:16:07;;;;;;;27.85;25.25;;;;;;;30.48;74.38;98722.56;5098359;28;20382;-93
2023/08/18 09:18:33;;;;;;;27.40;22.48;;;;;;;30.70;72.98;98729.28;5097493;28;20447;-94
2023/08/18 09:21:00;;;;;;;26.88;23.85;;;;;;;30.77;71.39;98734.94;5095507;28;20102;-93
2023/08/18 09:23:28;;;;;;;27.73;25.00;;;;;;;30.81;69.84;98730.81;5094849;27;20043;-92
2023/08/18 09:25:56;;;;;;;27.27;24.50;;;;;;;30.85;68.61;98714.88;5095665;28;20028;-93
2023/08/18 09:28:23;;;;;;;28.42;24.75;;;;;;;30.94;69.84;98719.34;5095166;28;20081;-93
2023/08/18 09:30:48;;;;;;;26.55;23.52;;;;;;;30.88;61.32;98723.66;5094450;28;20050;-95
2023/08/18 09:33:15;;;;;;;26.83;24.25;;;;;;;30.94;59.61;98724.84;5098051;28;20028;-93
2023/08/18 09:35:40;;;;;;;28.08;25.27;;;;;;;30.54;57.82;98717.47;5098112;28;20042;-95
2023/08/18 09:38:13;;;;;;;28.13;25.35;;;;;;;30.63;59.42;98716.41;5093676;28;20556;-94
2023/08/18 09:40:40;;;;;;;28.13;25.48;;;;;;;30.84;57.76;98715.88;5097189;28;20039;-94
2023/08/18 09:43:06;;;;;;;27.00;23.85;;;;;;;30.92;57.84;98710.44;5096722;28;20039;-94
2023/08/18 09:45:34;;;;;;;26.73;24.02;;;;;;;31.03;57.00;98704.56;5086927;27;20109;-95
2023/08/18 09:48:01;;;;;;;26.58;23.48;;;;;;;31.14;58.87;98708.84;5106165;27;20508;-94
2023/08/18 09:50:30;;;;;;;27.92;23.92;;;;;;;31.14;57.65;98703.34;5107444;27;20045;-93
2023/08/18 09:52:58;;;;;;;26.38;23.77;;;;;;;31.37;57.30;98702.63;5107731;28;20116;-93
2023/08/18 09:55:28;;;;;;;26.67;24.13;;;;;;;31.62;56.09;98707.03;5103163;27;20126;-94
2023/08/18 09:58:03;;;;;;;27.27;24.65;;;;;;;31.45;55.66;98702.63;5108216;27;20035;-94
2023/08/18 10:00:30;;;;;;;26.27;23.75;;;;;;;31.66;56.09;98704.78;5110169;28;20562;-94
2023/08/18 10:02:59;;;;;;;27.13;24.88;;;;;;;31.57;54.71;98689.34;5112008;27;20080;-94
2023/08/18 10:05:26;;;;;;;25.60;22.85;;;;;;;31.75;54.79;98705.59;5115107;27;20083;-94
2023/08/18 10:07:52;;;;;;;26.77;24.48;;;;;;;31.81;51.50;98699.38;5111773;27;20059;-93
2023/08/18 10:10:19;;;;;;;27.63;25.27;;;;;;;31.79;52.45;98698.69;5117786;27;20035;-94
2023/08/18 10:12:45;;;;;;;27.55;24.88;;;;;;;31.47;53.22;98698.69;5109987;27;20049;-93
2023/08/18 10:15:14;;;;;;;27.13;24.63;;;;;;;31.51;51.50;98689.03;5121476;27;20065;-93
2023/08/18 10:17:41;;;;;;;25.63;23.50;;;;;;;31.65;52.02;98695.69;5117204;27;20042;-94
2023/08/18 10:20:11;;;;;;;25.88;23.33;;;;;;;31.72;51.43;98698.56;5119064;27;20043;-93
2023/08/18 10:22:37;;;;;;;25.92;23.83;;;;;;;31.93;49.22;98698.81;5114978;27;20039;-95
2023/08/18 10:25:05;;;;;;;25.45;23.35;;;;;;;32.05;47.02;98682.78;5113205;27;20388;-94
2023/08/18 10:27:40;;;;;;;24.98;22.80;;;;;;;31.73;46.86;98692.91;5100946;28;20048;-94
2023/08/18 10:30:32;;;;;;;25.00;23.00;;;;;;;31.39;49.46;98689.56;5097770;28;20043;-95
2023/08/18 10:33:06;;;;;;;25.60;23.35;;;;;;;31.46;47.53;98690.59;5094846;27;20058;-94
2023/08/18 10:35:34;;;;;;;25.50;23.38;;;;;;;31.68;46.53;98684.31;5123823;27;20129;-93
2023/08/18 10:38:03;;;;;;;;;;;;;;;31.86;45.25;98692.31;5118934;27;20111;-95
2023/08/18 10:40:30;;;;;;;26.17;23.88;;;;;;;31.99;44.43;98686.28;5130103;27;19915;-94
2023/08/18 10:42:59;;;;;;;23.20;21.35;;;;;;;32.07;44.85;98677.09;5113314;28;20473;-95
2023/08/18 10:45:26;;;;;;;24.60;22.60;;;;;;;32.18;44.54;98668.41;5101442;27;20131;-95
2023/08/18 10:47:57;;;;;;;23.88;21.73;;;;;;;32.17;43.23;98660.38;5109230;27;20130;-94
2023/08/18 10:50:24;;;;;;;24.67;22.65;;;;;;;31.98;43.25;98673.53;5117361;27;20051;-95
2023/08/18 10:52:51;;;;;;;24.85;22.90;;;;;;;32.13;43.34;98681.88;5118998;27;20070;-94